createdAt,value
2023-04-15T00:01:06.492Z,87.76
2023-04-15T00:06:13.709Z,87.72
2023-04-15T00:11:20.760Z,87.82
2023-04-15T00:16:28.477Z,87.87
2023-04-15T00:21:35.815Z,87.62
2023-04-15T00:26:42.747Z,87.65
2023-04-15T00:31:49.838Z,87.51
2023-04-15T00:36:56.819Z,87.36
2023-04-15T00:42:03.996Z,87.30
2023-04-15T00:47:12.516Z,87.06
2023-04-15T00:52:19.460Z,87.25
2023-04-15T00:57:27.214Z,87.38
2023-04-15T01:02:35.640Z,87.46
2023-04-15T01:07:42.702Z,87.58
2023-04-15T01:12:49.939Z,87.49
2023-04-15T01:17:57.957Z,87.56
2023-04-15T01:23:05.163Z,87.48
2023-04-15T01:28:12.624Z,87.41
2023-04-15T01:33:19.689Z,87.27
2023-04-15T01:38:28.078Z,87.30
2023-04-15T01:43:34.959Z,87.03
2023-04-15T01:48:42.222Z,86.94
2023-04-15T01:53:49.217Z,86.95
2023-04-15T01:58:56.285Z,87.00
2023-04-15T02:04:03.451Z,87.04
2023-04-15T02:09:11.725Z,86.87
2023-04-15T02:14:18.606Z,86.90
2023-04-15T02:19:26.168Z,86.97
2023-04-15T02:24:33.437Z,86.88
2023-04-15T02:29:40.626Z,86.81
2023-04-15T02:34:48.404Z,86.74
2023-04-15T02:39:57.218Z,86.82
2023-04-15T02:45:04.312Z,86.81
2023-04-15T02:50:15.208Z,86.86
2023-04-15T02:55:22.778Z,86.86
2023-04-15T03:00:30.330Z,86.92
2023-04-15T03:05:39.281Z,87.03
2023-04-15T03:10:46.318Z,87.23
2023-04-15T03:15:53.397Z,87.36
2023-04-15T03:21:02.749Z,87.32
2023-04-15T03:26:11.181Z,87.23
2023-04-15T03:31:18.384Z,87.32
2023-04-15T03:36:26.162Z,87.54
2023-04-15T03:41:33.829Z,87.24
2023-04-15T03:46:41.403Z,86.96
2023-04-15T03:51:48.616Z,87.09
2023-04-15T03:56:56.040Z,86.69
2023-04-15T04:02:03.114Z,86.18
2023-04-15T04:07:10.304Z,86.09
2023-04-15T04:12:17.244Z,86.05
2023-04-15T04:17:24.295Z,85.79
2023-04-15T04:22:31.490Z,85.87
2023-04-15T04:27:38.544Z,85.77
2023-04-15T04:32:45.618Z,85.87
2023-04-15T04:37:53.844Z,85.81
2023-04-15T04:43:01.139Z,85.84
2023-04-15T04:48:10.316Z,85.60
2023-04-15T04:53:18.583Z,85.23
2023-04-15T04:58:25.965Z,85.23
2023-04-15T05:03:33.154Z,85.03
2023-04-15T05:08:41.371Z,84.80
2023-04-15T05:13:48.391Z,84.76
2023-04-15T05:18:55.726Z,84.39
2023-04-15T05:24:02.679Z,84.42
2023-04-15T05:29:09.650Z,84.03
2023-04-15T05:34:17.566Z,83.84
2023-04-15T05:39:24.643Z,84.01
2023-04-15T05:44:31.734Z,83.98
2023-04-15T05:49:38.767Z,84.00
2023-04-15T05:54:45.842Z,84.14
2023-04-15T05:59:52.908Z,83.70
2023-04-15T06:05:01.179Z,83.79
2023-04-15T06:10:11.050Z,83.82
2023-04-15T06:15:18.057Z,83.83
2023-04-15T06:20:25.672Z,83.59
2023-04-15T06:25:32.630Z,83.15
2023-04-15T06:30:40.158Z,82.78
2023-04-15T06:35:47.612Z,82.65
2023-04-15T06:40:54.606Z,82.25
2023-04-15T06:46:01.757Z,82.22
2023-04-15T06:51:09.163Z,82.12
2023-04-15T06:56:16.458Z,82.32
2023-04-15T07:01:23.614Z,82.01
2023-04-15T07:06:30.592Z,81.07
2023-04-15T07:11:37.729Z,80.85
2023-04-15T07:16:45.063Z,80.17
2023-04-15T07:21:53.421Z,80.07
2023-04-15T07:27:01.287Z,79.48
2023-04-15T07:32:11.416Z,79.86
2023-04-15T07:37:19.219Z,79.43
2023-04-15T07:42:26.628Z,78.73
2023-04-15T07:47:33.847Z,78.53
2023-04-15T07:52:40.961Z,77.34
2023-04-15T07:57:48.569Z,78.23
2023-04-15T08:02:57.550Z,77.80
2023-04-15T08:08:04.749Z,77.12
2023-04-15T08:13:11.825Z,76.21
2023-04-15T08:18:18.786Z,75.66
2023-04-15T08:23:25.808Z,75.47
2023-04-15T08:28:33.080Z,75.07
2023-04-15T08:33:40.251Z,75.07
2023-04-15T08:38:47.262Z,74.04
2023-04-15T08:44:03.246Z,74.07
2023-04-15T08:49:13.377Z,73.58
2023-04-15T08:54:21.467Z,73.86
2023-04-15T08:59:28.532Z,73.14
2023-04-15T09:04:36.101Z,73.01
2023-04-15T09:09:43.039Z,72.69
2023-04-15T09:14:50.060Z,71.43
2023-04-15T09:20:11.390Z,71.28
2023-04-15T09:25:34.270Z,69.66
2023-04-15T09:30:46.618Z,68.97
2023-04-15T09:36:03.597Z,70.43
2023-04-15T09:41:20.812Z,70.03
2023-04-15T09:46:44.680Z,69.13
2023-04-15T09:52:04.541Z,69.07
2023-04-15T09:57:12.388Z,68.52
2023-04-15T10:02:21.984Z,68.09
2023-04-15T10:07:29.988Z,68.00
2023-04-15T10:12:38.222Z,68.01
2023-04-15T10:17:46.900Z,68.42
2023-04-15T10:22:54.501Z,68.05
2023-04-15T10:28:02.577Z,67.72
2023-04-15T10:33:11.335Z,66.55
2023-04-15T10:38:38.602Z,65.45
2023-04-15T10:43:51.647Z,63.37
2023-04-15T10:48:58.646Z,66.38
2023-04-15T10:54:10.353Z,65.77
2023-04-15T10:59:20.363Z,64.93
2023-04-15T11:04:44.817Z,65.56
2023-04-15T11:09:51.868Z,64.33
2023-04-15T11:15:00.094Z,64.14
2023-04-15T11:20:09.842Z,63.42
2023-04-15T11:25:26.128Z,63.24
2023-04-15T11:30:34.715Z,62.50
2023-04-15T11:35:44.250Z,62.21
2023-04-15T11:40:52.448Z,61.67
2023-04-15T11:46:01.363Z,59.51
2023-04-15T11:51:09.151Z,57.68
2023-04-15T11:56:21.161Z,58.00
2023-04-15T12:01:36.755Z,60.21
2023-04-15T12:06:43.643Z,60.45
2023-04-15T12:11:53.024Z,57.88
2023-04-15T12:17:02.087Z,58.88
2023-04-15T12:22:12.208Z,58.55
2023-04-15T12:27:19.861Z,59.21
2023-04-15T12:32:27.382Z,57.83
2023-04-15T12:37:34.253Z,57.96
2023-04-15T12:42:41.507Z,57.48
2023-04-15T12:47:48.491Z,57.75
2023-04-15T12:52:55.405Z,57.11
2023-04-15T12:58:02.576Z,57.40
2023-04-15T13:03:09.597Z,57.11
2023-04-15T13:08:16.611Z,57.25
2023-04-15T13:13:23.701Z,57.05
2023-04-15T13:18:31.393Z,56.54
2023-04-15T13:23:38.406Z,55.29
2023-04-15T13:28:45.748Z,56.48
2023-04-15T13:33:52.683Z,56.20
2023-04-15T13:39:00.169Z,55.02
2023-04-15T13:44:07.320Z,52.03
2023-04-15T13:49:15.859Z,50.26
2023-04-15T13:54:22.802Z,49.23
2023-04-15T13:59:30.474Z,48.83
2023-04-15T14:04:37.616Z,47.34
2023-04-15T14:09:44.545Z,48.17
2023-04-15T14:14:51.473Z,49.07
2023-04-15T14:19:58.339Z,46.77
2023-04-15T14:25:06.537Z,45.59
2023-04-15T14:30:14.655Z,43.22
2023-04-15T14:35:21.862Z,42.86
2023-04-15T14:40:28.884Z,43.28
2023-04-15T14:45:36.485Z,43.86
2023-04-15T14:50:43.826Z,43.15
2023-04-15T14:55:50.711Z,40.94
2023-04-15T15:00:57.798Z,40.80
2023-04-15T15:06:04.690Z,38.08
2023-04-15T15:11:11.576Z,38.97
2023-04-15T15:16:18.590Z,38.41
2023-04-15T15:21:27.176Z,39.27
2023-04-15T15:26:34.305Z,39.33
2023-04-15T15:31:41.353Z,40.16
2023-04-15T15:36:48.228Z,40.24
2023-04-15T15:41:55.234Z,40.55
2023-04-15T15:47:02.315Z,41.25
2023-04-15T15:52:09.820Z,40.08
2023-04-15T15:57:16.891Z,39.50
2023-04-15T16:02:40.100Z,40.46
2023-04-15T16:07:50.931Z,40.75
2023-04-15T16:12:57.772Z,41.65
2023-04-15T16:18:04.978Z,41.58
2023-04-15T16:23:15.976Z,42.99
2023-04-15T16:28:26.904Z,43.44
2023-04-15T16:33:34.899Z,44.23
2023-04-15T16:38:41.838Z,45.12
2023-04-15T16:43:48.676Z,45.73
2023-04-15T16:48:55.556Z,46.10
2023-04-15T16:54:02.664Z,46.51
2023-04-15T16:59:10.081Z,46.75
2023-04-15T17:04:20.748Z,47.31
2023-04-15T17:09:27.806Z,48.06
2023-04-15T17:14:35.239Z,48.55
2023-04-15T17:19:42.181Z,49.22
2023-04-15T17:24:49.044Z,50.04
2023-04-15T17:29:56.266Z,50.68
2023-04-15T17:35:06.079Z,51.17
2023-04-15T17:40:14.985Z,52.27
2023-04-15T17:45:21.875Z,53.80
2023-04-15T17:50:28.973Z,54.91
2023-04-15T17:55:36.453Z,56.10
2023-04-15T18:00:43.281Z,56.70
2023-04-15T18:05:50.166Z,58.13
2023-04-15T18:10:57.549Z,58.66
2023-04-15T18:16:04.622Z,59.26
2023-04-15T18:21:13.581Z,60.39
2023-04-15T18:26:21.650Z,60.76
2023-04-15T18:31:28.573Z,61.43
2023-04-15T18:36:35.826Z,61.73
2023-04-15T18:41:42.738Z,61.93
2023-04-15T18:46:51.296Z,62.40
2023-04-15T18:51:58.226Z,63.07
2023-04-15T18:57:06.676Z,63.38
2023-04-15T19:02:14.021Z,64.00
2023-04-15T19:07:21.048Z,64.29
2023-04-15T19:12:28.267Z,64.28
2023-04-15T19:17:35.740Z,64.53
2023-04-15T19:22:43.504Z,64.75
2023-04-15T19:27:50.357Z,64.98
2023-04-15T19:32:57.598Z,65.25
2023-04-15T19:38:05.738Z,65.60
2023-04-15T19:43:12.786Z,65.86
2023-04-15T19:48:19.858Z,66.15
2023-04-15T19:53:26.710Z,66.46
2023-04-15T19:58:33.656Z,66.87
2023-04-15T20:03:41.178Z,67.37
2023-04-15T20:08:48.325Z,67.73
2023-04-15T20:13:55.578Z,67.86
2023-04-15T20:19:07.614Z,68.19
2023-04-15T20:24:15.070Z,68.44
2023-04-15T20:29:22.457Z,68.68
2023-04-15T20:34:29.657Z,69.04
2023-04-15T20:39:36.754Z,69.47
2023-04-15T20:44:43.772Z,69.63
2023-04-15T20:49:50.870Z,69.64
2023-04-15T20:54:57.780Z,69.72
2023-04-15T21:00:05.057Z,69.91
2023-04-15T21:05:12.287Z,70.15
2023-04-15T21:10:19.159Z,70.51
2023-04-15T21:15:25.998Z,70.62
2023-04-15T21:20:33.016Z,70.89
2023-04-15T21:25:39.811Z,71.33
2023-04-15T21:30:47.370Z,71.69
2023-04-15T21:35:55.542Z,71.82
2023-04-15T21:41:05.958Z,72.18
2023-04-15T21:46:22.470Z,72.34
2023-04-15T21:51:32.766Z,72.61
2023-04-15T21:56:39.672Z,72.80
2023-04-15T22:01:47.473Z,73.31
2023-04-15T22:06:55.766Z,73.49
2023-04-15T22:12:04.712Z,73.41
2023-04-15T22:17:11.662Z,73.74
2023-04-15T22:22:18.760Z,74.00
2023-04-15T22:27:26.869Z,74.00
2023-04-15T22:32:33.889Z,74.38
2023-04-15T22:37:41.065Z,74.69
2023-04-15T22:42:48.490Z,75.18
2023-04-15T22:47:55.548Z,75.11
2023-04-15T22:53:02.427Z,75.01
2023-04-15T22:58:09.331Z,75.13
2023-04-15T23:03:16.281Z,75.32
2023-04-15T23:08:24.989Z,75.59
2023-04-15T23:13:32.318Z,75.50
2023-04-15T23:18:39.306Z,75.50
2023-04-15T23:23:46.334Z,75.99
2023-04-15T23:28:53.174Z,75.91
2023-04-15T23:34:00.161Z,75.91
2023-04-15T23:39:07.343Z,75.89
2023-04-15T23:44:14.453Z,76.06
2023-04-15T23:49:21.446Z,76.22
2023-04-15T23:54:28.481Z,76.53
2023-04-15T23:59:35.507Z,76.70
